Fort Bragg, CA (95437)

4:57 AM PST on March 01, 2015 (GMT -0800)
Coast Highlands I | Change Station
CLOSE
Current Station
Personal Weather Station
Location: Mendocino, CA
Elevation: 49 ft
Nearby Weather Stations
Active Advisory: Frost Advisory

Elev 49 ft 39.33 °N, 123.82 °W | Updated 5 seconds ago

Partly Cloudy
Partly Cloudy
44.2 °F
Feels Like 44 °F
N
0.0
Wind Variable Wind from East
Gusts 2.0 mph

Today
High -- | Low -- °F
--% Chance of Precip.
Yesterday
High -- | Low -- °F
Precip. -- in
6:48 AM 6:07 PM
Waxing Gibbous, 85% visible
Pressure 29.96 in
Visibility 10.0 miles
Clouds Clear
Windchill 44 °F
Dew Point 39 °F
Humidity 82%
Rainfall 0.00 in
Snow Depth Not available.
UV 0 out of 12
Pollen 6.50 out of 12
Air Quality Not available.
Flu Activity Not available.
METAR KUKI 011156Z AUTO 00000KT 10SM CLR 03/01 A2996 RMK AO2 SLP144 7//// T00280011 10061 20017 58001 $

More Conditions Fewer Conditions

Pressure 29.96 in
Visibility 10.0 miles
Clouds Clear
Windchill 44 °F
Dew Point 39 °F
Humidity 82%
Rainfall 0.00 in
Snow Depth Not available.
UV 0 out of 12
Pollen 6.50 out of 12
Air Quality Not available.
Flu Activity Not available.
METAR KUKI 011156Z AUTO 00000KT 10SM CLR 03/01 A2996 RMK AO2 SLP144 7//// T00280011 10061 20017 58001 $

More Conditions Fewer Conditions

10-Day Weather Forecast

Almanac

Astronomy

Mar. 01, 2015 Rise Set
Actual Time
Civil Twilight
Nautical Twilight
Astronomical Twilight
Moon
Length of Visible Light
Length of Day
Tomorrow will be .
, % of the Moon is Illuminated

Today's Extremes

State Highs State Lows

Community

WunderPhotos

Upload Photos

1,801,371 photos uploaded!

WunderBlogs® & News

Nearby

Air Quality

  Air Quality AQ Index Pollutant
Not available.

Snow Depth

Station Depth Elevation

Earthquake Activity

City Distance Mag. Time & Date
Minimum magnitude displayed is 2.5.

Coastal Water Temperatures

Place Temperature

Nearby Weather Stations

Frost Advisory
Statement as of 1:03 AM PST on March 01, 2015

... Frost advisory remains in effect until 9 am PST this morning...

* low temperatures... mid 30s.

* Locations include... valley and coastal locations with the
exception of areas less than a half mile from the coast.
Locations include Eureka... Arcata... McKinleyville... Fortuna...
Boonville.

* For a detailed view of the hazard area... visit
http://www.Weather.Gov/Eureka/hazards

Precautionary/preparedness actions...

A frost advisory means that frost is possible. Sensitive outdoor
plants may be killed if left uncovered.